sensor_id;sensor_type;location;lat;lon;timestamp;P1;durP1;ratioP1;P2;durP2;ratioP2
9880;SDS011;4979;51.014;6.678;2023-07-31T00:00:37;6.90;;;3.50;;
9880;SDS011;4979;51.014;6.678;2023-07-31T00:03:03;6.60;;;3.47;;
9880;SDS011;4979;51.014;6.678;2023-07-31T00:05:29;10.48;;;3.42;;
9880;SDS011;4979;51.014;6.678;2023-07-31T00:07:54;7.10;;;3.53;;
9880;SDS011;4979;51.014;6.678;2023-07-31T00:10:20;10.13;;;3.60;;
9880;SDS011;4979;51.014;6.678;2023-07-31T00:12:45;7.72;;;3.53;;
9880;SDS011;4979;51.014;6.678;2023-07-31T00:15:11;8.25;;;3.47;;
9880;SDS011;4979;51.014;6.678;2023-07-31T00:17:39;11.18;;;3.88;;
9880;SDS011;4979;51.014;6.678;2023-07-31T00:20:05;10.32;;;4.15;;
9880;SDS011;4979;51.014;6.678;2023-07-31T00:22:31;5.22;;;3.38;;
9880;SDS011;4979;51.014;6.678;2023-07-31T00:24:56;8.43;;;3.58;;
9880;SDS011;4979;51.014;6.678;2023-07-31T00:27:22;9.18;;;3.80;;
9880;SDS011;4979;51.014;6.678;2023-07-31T00:29:48;8.15;;;3.17;;
9880;SDS011;4979;51.014;6.678;2023-07-31T00:32:13;7.43;;;3.42;;
9880;SDS011;4979;51.014;6.678;2023-07-31T00:34:39;6.63;;;3.35;;
9880;SDS011;4979;51.014;6.678;2023-07-31T00:37:05;10.23;;;3.33;;
9880;SDS011;4979;51.014;6.678;2023-07-31T00:39:31;12.60;;;3.67;;
9880;SDS011;4979;51.014;6.678;2023-07-31T00:41:56;8.60;;;3.70;;
9880;SDS011;4979;51.014;6.678;2023-07-31T00:44:22;7.45;;;3.35;;
9880;SDS011;4979;51.014;6.678;2023-07-31T00:46:48;8.38;;;4.07;;
9880;SDS011;4979;51.014;6.678;2023-07-31T00:49:13;6.68;;;3.00;;
9880;SDS011;4979;51.014;6.678;2023-07-31T00:51:40;9.95;;;3.22;;
9880;SDS011;4979;51.014;6.678;2023-07-31T00:54:06;4.75;;;3.25;;
9880;SDS011;4979;51.014;6.678;2023-07-31T00:56:31;10.70;;;3.22;;
9880;SDS011;4979;51.014;6.678;2023-07-31T00:58:57;6.47;;;3.58;;
9880;SDS011;4979;51.014;6.678;2023-07-31T01:01:23;6.25;;;2.92;;
9880;SDS011;4979;51.014;6.678;2023-07-31T01:03:49;11.90;;;3.60;;
9880;SDS011;4979;51.014;6.678;2023-07-31T01:06:31;11.18;;;3.60;;
9880;SDS011;4979;51.014;6.678;2023-07-31T01:12:00;5.93;;;2.88;;
9880;SDS011;4979;51.014;6.678;2023-07-31T01:14:27;9.32;;;3.10;;
9880;SDS011;4979;51.014;6.678;2023-07-31T01:16:54;10.48;;;3.72;;
9880;SDS011;4979;51.014;6.678;2023-07-31T01:19:21;5.60;;;3.42;;
9880;SDS011;4979;51.014;6.678;2023-07-31T01:21:56;8.35;;;3.42;;
9880;SDS011;4979;51.014;6.678;2023-07-31T01:24:55;8.32;;;3.42;;
9880;SDS011;4979;51.014;6.678;2023-07-31T01:27:59;9.13;;;3.08;;
9880;SDS011;4979;51.014;6.678;2023-07-31T01:30:31;10.90;;;3.53;;
9880;SDS011;4979;51.014;6.678;2023-07-31T01:33:00;10.77;;;3.60;;
9880;SDS011;4979;51.014;6.678;2023-07-31T01:35:32;10.13;;;3.50;;
9880;SDS011;4979;51.014;6.678;2023-07-31T01:37:58;8.77;;;4.32;;
9880;SDS011;4979;51.014;6.678;2023-07-31T01:40:24;10.10;;;3.90;;
9880;SDS011;4979;51.014;6.678;2023-07-31T01:42:49;9.73;;;4.10;;
9880;SDS011;4979;51.014;6.678;2023-07-31T01:45:15;9.85;;;3.95;;
9880;SDS011;4979;51.014;6.678;2023-07-31T01:47:40;9.07;;;3.40;;
9880;SDS011;4979;51.014;6.678;2023-07-31T01:50:06;6.80;;;3.33;;
9880;SDS011;4979;51.014;6.678;2023-07-31T01:52:32;5.10;;;3.65;;
9880;SDS011;4979;51.014;6.678;2023-07-31T01:54:57;12.05;;;3.20;;
9880;SDS011;4979;51.014;6.678;2023-07-31T01:57:23;8.60;;;3.92;;
9880;SDS011;4979;51.014;6.678;2023-07-31T01:59:48;7.30;;;3.60;;
9880;SDS011;4979;51.014;6.678;2023-07-31T02:02:14;6.80;;;3.25;;
9880;SDS011;4979;51.014;6.678;2023-07-31T02:04:40;7.25;;;3.38;;
9880;SDS011;4979;51.014;6.678;2023-07-31T02:07:06;7.25;;;3.72;;
9880;SDS011;4979;51.014;6.678;2023-07-31T02:09:31;5.13;;;2.97;;
9880;SDS011;4979;51.014;6.678;2023-07-31T02:11:57;7.75;;;3.85;;
9880;SDS011;4979;51.014;6.678;2023-07-31T02:14:22;6.10;;;3.58;;
9880;SDS011;4979;51.014;6.678;2023-07-31T02:16:49;7.68;;;3.58;;
9880;SDS011;4979;51.014;6.678;2023-07-31T02:19:14;7.03;;;2.90;;
9880;SDS011;4979;51.014;6.678;2023-07-31T02:21:40;6.45;;;3.15;;
9880;SDS011;4979;51.014;6.678;2023-07-31T02:24:05;5.78;;;2.75;;
9880;SDS011;4979;51.014;6.678;2023-07-31T02:26:31;7.30;;;3.17;;
9880;SDS011;4979;51.014;6.678;2023-07-31T02:28:56;11.73;;;3.60;;
9880;SDS011;4979;51.014;6.678;2023-07-31T02:31:22;7.22;;;3.70;;
9880;SDS011;4979;51.014;6.678;2023-07-31T02:33:47;11.13;;;3.65;;
9880;SDS011;4979;51.014;6.678;2023-07-31T02:36:13;9.18;;;3.63;;
9880;SDS011;4979;51.014;6.678;2023-07-31T02:38:39;6.65;;;3.47;;
9880;SDS011;4979;51.014;6.678;2023-07-31T02:41:05;8.65;;;4.10;;
9880;SDS011;4979;51.014;6.678;2023-07-31T02:43:30;9.23;;;3.50;;
9880;SDS011;4979;51.014;6.678;2023-07-31T02:45:56;17.67;;;4.45;;
9880;SDS011;4979;51.014;6.678;2023-07-31T02:48:21;7.30;;;3.95;;
9880;SDS011;4979;51.014;6.678;2023-07-31T02:50:47;12.50;;;3.78;;
9880;SDS011;4979;51.014;6.678;2023-07-31T02:53:13;11.15;;;3.97;;
9880;SDS011;4979;51.014;6.678;2023-07-31T02:55:38;10.07;;;3.67;;
9880;SDS011;4979;51.014;6.678;2023-07-31T02:58:04;10.88;;;4.30;;
9880;SDS011;4979;51.014;6.678;2023-07-31T03:00:30;13.65;;;4.25;;
9880;SDS011;4979;51.014;6.678;2023-07-31T03:02:55;9.02;;;3.90;;
9880;SDS011;4979;51.014;6.678;2023-07-31T03:05:21;6.35;;;3.50;;
9880;SDS011;4979;51.014;6.678;2023-07-31T03:07:46;7.80;;;3.88;;
9880;SDS011;4979;51.014;6.678;2023-07-31T03:10:12;7.35;;;3.85;;
9880;SDS011;4979;51.014;6.678;2023-07-31T03:12:37;8.57;;;3.72;;
9880;SDS011;4979;51.014;6.678;2023-07-31T03:15:03;17.13;;;4.40;;
9880;SDS011;4979;51.014;6.678;2023-07-31T03:17:29;8.60;;;3.90;;
9880;SDS011;4979;51.014;6.678;2023-07-31T03:19:54;10.40;;;4.18;;
9880;SDS011;4979;51.014;6.678;2023-07-31T03:22:20;11.93;;;4.07;;
9880;SDS011;4979;51.014;6.678;2023-07-31T03:24:45;8.50;;;4.50;;
9880;SDS011;4979;51.014;6.678;2023-07-31T03:27:11;9.25;;;3.70;;
9880;SDS011;4979;51.014;6.678;2023-07-31T03:29:37;7.97;;;3.85;;
9880;SDS011;4979;51.014;6.678;2023-07-31T03:32:02;9.75;;;4.07;;
9880;SDS011;4979;51.014;6.678;2023-07-31T03:34:28;12.68;;;4.55;;
9880;SDS011;4979;51.014;6.678;2023-07-31T03:36:54;8.80;;;3.63;;
9880;SDS011;4979;51.014;6.678;2023-07-31T03:39:20;9.68;;;4.15;;
9880;SDS011;4979;51.014;6.678;2023-07-31T03:41:45;10.55;;;4.35;;
9880;SDS011;4979;51.014;6.678;2023-07-31T03:44:11;10.23;;;4.43;;
9880;SDS011;4979;51.014;6.678;2023-07-31T03:46:36;10.65;;;4.10;;
9880;SDS011;4979;51.014;6.678;2023-07-31T03:49:02;8.38;;;3.88;;
9880;SDS011;4979;51.014;6.678;2023-07-31T03:51:28;7.57;;;3.90;;
9880;SDS011;4979;51.014;6.678;2023-07-31T03:53:53;9.32;;;4.25;;
9880;SDS011;4979;51.014;6.678;2023-07-31T03:56:19;9.02;;;3.92;;
9880;SDS011;4979;51.014;6.678;2023-07-31T03:58:44;10.65;;;4.38;;
9880;SDS011;4979;51.014;6.678;2023-07-31T04:01:10;8.18;;;4.28;;
9880;SDS011;4979;51.014;6.678;2023-07-31T04:03:35;8.25;;;4.25;;
9880;SDS011;4979;51.014;6.678;2023-07-31T04:06:01;11.27;;;4.70;;
9880;SDS011;4979;51.014;6.678;2023-07-31T04:08:26;8.07;;;3.83;;
9880;SDS011;4979;51.014;6.678;2023-07-31T04:10:52;11.45;;;4.80;;
9880;SDS011;4979;51.014;6.678;2023-07-31T04:13:17;8.60;;;3.83;;
9880;SDS011;4979;51.014;6.678;2023-07-31T04:15:47;12.30;;;4.85;;
9880;SDS011;4979;51.014;6.678;2023-07-31T04:18:16;7.60;;;4.22;;
9880;SDS011;4979;51.014;6.678;2023-07-31T04:20:42;7.53;;;4.32;;
9880;SDS011;4979;51.014;6.678;2023-07-31T04:23:07;8.82;;;4.00;;
9880;SDS011;4979;51.014;6.678;2023-07-31T04:25:33;11.27;;;4.70;;
9880;SDS011;4979;51.014;6.678;2023-07-31T04:27:59;11.30;;;4.88;;
9880;SDS011;4979;51.014;6.678;2023-07-31T04:30:25;7.40;;;4.85;;
9880;SDS011;4979;51.014;6.678;2023-07-31T04:32:51;9.27;;;4.53;;
9880;SDS011;4979;51.014;6.678;2023-07-31T04:35:16;8.02;;;4.35;;
9880;SDS011;4979;51.014;6.678;2023-07-31T04:37:42;8.93;;;4.28;;
9880;SDS011;4979;51.014;6.678;2023-07-31T04:40:08;11.20;;;4.57;;
9880;SDS011;4979;51.014;6.678;2023-07-31T04:42:33;7.20;;;4.43;;
9880;SDS011;4979;51.014;6.678;2023-07-31T04:44:59;9.52;;;4.63;;
9880;SDS011;4979;51.014;6.678;2023-07-31T04:47:25;7.43;;;4.18;;
9880;SDS011;4979;51.014;6.678;2023-07-31T04:49:50;9.40;;;4.60;;
9880;SDS011;4979;51.014;6.678;2023-07-31T04:52:16;7.97;;;4.18;;
9880;SDS011;4979;51.014;6.678;2023-07-31T04:54:41;10.95;;;4.35;;
9880;SDS011;4979;51.014;6.678;2023-07-31T04:57:07;9.68;;;4.60;;
9880;SDS011;4979;51.014;6.678;2023-07-31T04:59:32;7.18;;;4.65;;
9880;SDS011;4979;51.014;6.678;2023-07-31T05:01:58;8.68;;;4.28;;
9880;SDS011;4979;51.014;6.678;2023-07-31T05:04:23;10.05;;;4.10;;
9880;SDS011;4979;51.014;6.678;2023-07-31T05:06:49;9.63;;;3.72;;
9880;SDS011;4979;51.014;6.678;2023-07-31T05:09:15;7.32;;;3.63;;
9880;SDS011;4979;51.014;6.678;2023-07-31T05:11:41;6.03;;;3.65;;
9880;SDS011;4979;51.014;6.678;2023-07-31T05:14:07;10.10;;;3.75;;
9880;SDS011;4979;51.014;6.678;2023-07-31T05:16:33;9.95;;;4.30;;
9880;SDS011;4979;51.014;6.678;2023-07-31T05:18:59;6.75;;;3.80;;
9880;SDS011;4979;51.014;6.678;2023-07-31T05:21:25;9.15;;;4.05;;
9880;SDS011;4979;51.014;6.678;2023-07-31T05:23:50;6.15;;;3.30;;
9880;SDS011;4979;51.014;6.678;2023-07-31T05:26:16;7.00;;;4.20;;
9880;SDS011;4979;51.014;6.678;2023-07-31T05:28:42;3.85;;;3.33;;
9880;SDS011;4979;51.014;6.678;2023-07-31T05:31:08;9.23;;;4.32;;
9880;SDS011;4979;51.014;6.678;2023-07-31T05:33:33;8.27;;;3.58;;
9880;SDS011;4979;51.014;6.678;2023-07-31T05:35:59;6.35;;;3.45;;
9880;SDS011;4979;51.014;6.678;2023-07-31T05:38:24;5.85;;;3.65;;
9880;SDS011;4979;51.014;6.678;2023-07-31T05:40:50;9.95;;;3.90;;
9880;SDS011;4979;51.014;6.678;2023-07-31T05:43:16;6.13;;;3.78;;
9880;SDS011;4979;51.014;6.678;2023-07-31T05:45:42;11.20;;;3.55;;
9880;SDS011;4979;51.014;6.678;2023-07-31T05:48:08;9.27;;;4.18;;
9880;SDS011;4979;51.014;6.678;2023-07-31T05:50:33;6.55;;;2.97;;
9880;SDS011;4979;51.014;6.678;2023-07-31T05:52:59;6.20;;;3.33;;
9880;SDS011;4979;51.014;6.678;2023-07-31T05:55:24;6.07;;;3.60;;
9880;SDS011;4979;51.014;6.678;2023-07-31T05:57:52;6.63;;;3.10;;
9880;SDS011;4979;51.014;6.678;2023-07-31T06:00:17;9.32;;;3.60;;
9880;SDS011;4979;51.014;6.678;2023-07-31T06:02:43;8.10;;;3.75;;
9880;SDS011;4979;51.014;6.678;2023-07-31T06:05:08;5.30;;;3.58;;
9880;SDS011;4979;51.014;6.678;2023-07-31T06:07:35;10.93;;;3.70;;
9880;SDS011;4979;51.014;6.678;2023-07-31T06:10:00;12.00;;;3.70;;
9880;SDS011;4979;51.014;6.678;2023-07-31T06:12:30;5.38;;;3.00;;
9880;SDS011;4979;51.014;6.678;2023-07-31T06:14:56;6.18;;;3.30;;
9880;SDS011;4979;51.014;6.678;2023-07-31T06:17:21;6.78;;;3.58;;
9880;SDS011;4979;51.014;6.678;2023-07-31T06:19:47;9.05;;;4.00;;
9880;SDS011;4979;51.014;6.678;2023-07-31T06:22:13;6.88;;;3.97;;
9880;SDS011;4979;51.014;6.678;2023-07-31T06:24:38;8.70;;;3.70;;
9880;SDS011;4979;51.014;6.678;2023-07-31T06:27:04;5.10;;;3.05;;
9880;SDS011;4979;51.014;6.678;2023-07-31T06:29:31;9.70;;;3.05;;
9880;SDS011;4979;51.014;6.678;2023-07-31T06:31:56;7.40;;;3.30;;
9880;SDS011;4979;51.014;6.678;2023-07-31T06:34:22;6.40;;;3.47;;
9880;SDS011;4979;51.014;6.678;2023-07-31T06:36:47;6.05;;;3.00;;
9880;SDS011;4979;51.014;6.678;2023-07-31T06:39:13;6.90;;;3.38;;
9880;SDS011;4979;51.014;6.678;2023-07-31T06:41:38;4.57;;;3.35;;
9880;SDS011;4979;51.014;6.678;2023-07-31T06:44:04;5.70;;;3.28;;
9880;SDS011;4979;51.014;6.678;2023-07-31T06:46:30;6.47;;;3.00;;
9880;SDS011;4979;51.014;6.678;2023-07-31T06:48:55;6.55;;;3.25;;
9880;SDS011;4979;51.014;6.678;2023-07-31T06:51:21;7.18;;;3.58;;
9880;SDS011;4979;51.014;6.678;2023-07-31T06:53:46;6.53;;;3.38;;
9880;SDS011;4979;51.014;6.678;2023-07-31T06:56:12;8.18;;;3.15;;
9880;SDS011;4979;51.014;6.678;2023-07-31T06:58:37;5.00;;;3.33;;
9880;SDS011;4979;51.014;6.678;2023-07-31T07:01:03;10.00;;;4.15;;
9880;SDS011;4979;51.014;6.678;2023-07-31T07:03:29;8.38;;;4.32;;
9880;SDS011;4979;51.014;6.678;2023-07-31T07:05:54;7.05;;;3.45;;
9880;SDS011;4979;51.014;6.678;2023-07-31T07:08:20;6.07;;;3.47;;
9880;SDS011;4979;51.014;6.678;2023-07-31T07:10:46;6.13;;;3.30;;
9880;SDS011;4979;51.014;6.678;2023-07-31T07:13:12;5.30;;;2.92;;
9880;SDS011;4979;51.014;6.678;2023-07-31T07:15:38;8.55;;;4.13;;
9880;SDS011;4979;51.014;6.678;2023-07-31T07:18:05;8.82;;;3.60;;
9880;SDS011;4979;51.014;6.678;2023-07-31T07:20:30;6.05;;;3.28;;
9880;SDS011;4979;51.014;6.678;2023-07-31T07:22:56;6.07;;;3.58;;
9880;SDS011;4979;51.014;6.678;2023-07-31T07:25:21;6.63;;;3.42;;
9880;SDS011;4979;51.014;6.678;2023-07-31T07:27:47;10.35;;;3.90;;
9880;SDS011;4979;51.014;6.678;2023-07-31T07:30:12;8.18;;;3.30;;
9880;SDS011;4979;51.014;6.678;2023-07-31T07:32:39;7.93;;;3.90;;
9880;SDS011;4979;51.014;6.678;2023-07-31T07:35:05;7.13;;;3.17;;
9880;SDS011;4979;51.014;6.678;2023-07-31T07:37:31;8.05;;;3.28;;
9880;SDS011;4979;51.014;6.678;2023-07-31T07:39:57;7.32;;;3.28;;
9880;SDS011;4979;51.014;6.678;2023-07-31T07:42:22;6.97;;;3.58;;
9880;SDS011;4979;51.014;6.678;2023-07-31T07:44:48;5.25;;;3.17;;
9880;SDS011;4979;51.014;6.678;2023-07-31T07:47:14;7.88;;;3.05;;
9880;SDS011;4979;51.014;6.678;2023-07-31T07:49:39;4.05;;;2.83;;
9880;SDS011;4979;51.014;6.678;2023-07-31T07:52:05;6.55;;;2.92;;
9880;SDS011;4979;51.014;6.678;2023-07-31T07:54:31;6.85;;;3.55;;
9880;SDS011;4979;51.014;6.678;2023-07-31T07:56:57;5.57;;;3.17;;
9880;SDS011;4979;51.014;6.678;2023-07-31T07:59:22;5.82;;;2.67;;
9880;SDS011;4979;51.014;6.678;2023-07-31T08:01:48;7.22;;;3.35;;
9880;SDS011;4979;51.014;6.678;2023-07-31T08:04:14;6.30;;;3.00;;
9880;SDS011;4979;51.014;6.678;2023-07-31T08:06:39;5.72;;;2.42;;
9880;SDS011;4979;51.014;6.678;2023-07-31T08:09:05;9.40;;;3.22;;
9880;SDS011;4979;51.014;6.678;2023-07-31T08:11:34;4.78;;;2.80;;
9880;SDS011;4979;51.014;6.678;2023-07-31T08:13:59;5.72;;;2.72;;
9880;SDS011;4979;51.014;6.678;2023-07-31T08:16:25;4.07;;;2.58;;
9880;SDS011;4979;51.014;6.678;2023-07-31T08:18:51;6.13;;;3.25;;
9880;SDS011;4979;51.014;6.678;2023-07-31T08:21:16;5.00;;;3.10;;
9880;SDS011;4979;51.014;6.678;2023-07-31T08:23:42;4.47;;;2.80;;
9880;SDS011;4979;51.014;6.678;2023-07-31T08:26:07;6.05;;;2.72;;
9880;SDS011;4979;51.014;6.678;2023-07-31T08:28:33;4.22;;;3.00;;
9880;SDS011;4979;51.014;6.678;2023-07-31T08:31:00;6.45;;;3.20;;
9880;SDS011;4979;51.014;6.678;2023-07-31T08:33:25;5.15;;;3.17;;
9880;SDS011;4979;51.014;6.678;2023-07-31T08:35:51;6.28;;;3.20;;
9880;SDS011;4979;51.014;6.678;2023-07-31T08:38:16;6.45;;;3.28;;
9880;SDS011;4979;51.014;6.678;2023-07-31T08:40:42;6.90;;;3.30;;
9880;SDS011;4979;51.014;6.678;2023-07-31T08:43:08;4.90;;;2.60;;
9880;SDS011;4979;51.014;6.678;2023-07-31T08:45:34;6.00;;;3.45;;
9880;SDS011;4979;51.014;6.678;2023-07-31T08:47:59;4.63;;;2.78;;
9880;SDS011;4979;51.014;6.678;2023-07-31T08:50:25;5.55;;;3.22;;
9880;SDS011;4979;51.014;6.678;2023-07-31T08:52:51;5.63;;;3.00;;
9880;SDS011;4979;51.014;6.678;2023-07-31T08:55:18;5.70;;;3.15;;
9880;SDS011;4979;51.014;6.678;2023-07-31T08:57:48;5.35;;;3.55;;
9880;SDS011;4979;51.014;6.678;2023-07-31T09:00:16;5.28;;;2.83;;
9880;SDS011;4979;51.014;6.678;2023-07-31T09:02:52;3.85;;;2.60;;
9880;SDS011;4979;51.014;6.678;2023-07-31T09:05:32;5.30;;;2.92;;
9880;SDS011;4979;51.014;6.678;2023-07-31T09:07:58;6.00;;;3.15;;
9880;SDS011;4979;51.014;6.678;2023-07-31T09:10:25;4.97;;;3.00;;
9880;SDS011;4979;51.014;6.678;2023-07-31T09:12:51;5.60;;;2.95;;
9880;SDS011;4979;51.014;6.678;2023-07-31T09:15:17;5.88;;;3.78;;
9880;SDS011;4979;51.014;6.678;2023-07-31T09:17:44;5.15;;;3.08;;
9880;SDS011;4979;51.014;6.678;2023-07-31T09:20:17;4.38;;;2.83;;
9880;SDS011;4979;51.014;6.678;2023-07-31T09:22:44;6.95;;;2.90;;
9880;SDS011;4979;51.014;6.678;2023-07-31T09:25:14;8.32;;;3.10;;
9880;SDS011;4979;51.014;6.678;2023-07-31T09:30:16;6.35;;;3.03;;
9880;SDS011;4979;51.014;6.678;2023-07-31T09:32:43;7.18;;;2.80;;
9880;SDS011;4979;51.014;6.678;2023-07-31T09:37:52;6.40;;;2.95;;
9880;SDS011;4979;51.014;6.678;2023-07-31T09:40:30;6.10;;;2.85;;
9880;SDS011;4979;51.014;6.678;2023-07-31T09:43:03;5.60;;;2.90;;
9880;SDS011;4979;51.014;6.678;2023-07-31T09:45:34;7.32;;;2.90;;
9880;SDS011;4979;51.014;6.678;2023-07-31T09:48:01;6.35;;;2.78;;
9880;SDS011;4979;51.014;6.678;2023-07-31T09:50:28;4.95;;;2.90;;
9880;SDS011;4979;51.014;6.678;2023-07-31T09:52:54;7.03;;;3.25;;
9880;SDS011;4979;51.014;6.678;2023-07-31T09:55:20;5.45;;;2.75;;
9880;SDS011;4979;51.014;6.678;2023-07-31T09:57:46;6.85;;;3.00;;
9880;SDS011;4979;51.014;6.678;2023-07-31T10:00:14;4.05;;;2.60;;
9880;SDS011;4979;51.014;6.678;2023-07-31T10:02:44;8.73;;;3.47;;
9880;SDS011;4979;51.014;6.678;2023-07-31T10:05:12;4.00;;;2.42;;
9880;SDS011;4979;51.014;6.678;2023-07-31T10:07:40;8.15;;;3.25;;
9880;SDS011;4979;51.014;6.678;2023-07-31T10:10:08;7.70;;;3.65;;
9880;SDS011;4979;51.014;6.678;2023-07-31T10:12:34;6.47;;;3.17;;
9880;SDS011;4979;51.014;6.678;2023-07-31T10:15:01;4.20;;;2.83;;
9880;SDS011;4979;51.014;6.678;2023-07-31T10:17:27;5.50;;;2.90;;
9880;SDS011;4979;51.014;6.678;2023-07-31T10:19:54;4.70;;;3.00;;
9880;SDS011;4979;51.014;6.678;2023-07-31T10:22:23;7.00;;;3.60;;
9880;SDS011;4979;51.014;6.678;2023-07-31T10:24:49;3.88;;;2.83;;
9880;SDS011;4979;51.014;6.678;2023-07-31T10:27:17;6.97;;;3.10;;
9880;SDS011;4979;51.014;6.678;2023-07-31T10:29:43;6.50;;;3.00;;
9880;SDS011;4979;51.014;6.678;2023-07-31T10:32:12;5.47;;;2.88;;
9880;SDS011;4979;51.014;6.678;2023-07-31T10:34:39;5.97;;;2.50;;
9880;SDS011;4979;51.014;6.678;2023-07-31T10:37:21;4.35;;;2.58;;
9880;SDS011;4979;51.014;6.678;2023-07-31T10:39:58;5.00;;;2.45;;
9880;SDS011;4979;51.014;6.678;2023-07-31T10:42:29;4.07;;;2.42;;
9880;SDS011;4979;51.014;6.678;2023-07-31T10:45:03;4.78;;;2.40;;
9880;SDS011;4979;51.014;6.678;2023-07-31T10:47:39;4.78;;;2.25;;
9880;SDS011;4979;51.014;6.678;2023-07-31T10:50:18;1.48;;;1.38;;
9880;SDS011;4979;51.014;6.678;2023-07-31T10:52:52;3.38;;;1.92;;
9880;SDS011;4979;51.014;6.678;2023-07-31T10:57:51;2.60;;;1.77;;
9880;SDS011;4979;51.014;6.678;2023-07-31T11:00:20;3.88;;;2.10;;
9880;SDS011;4979;51.014;6.678;2023-07-31T11:02:57;2.33;;;1.58;;
9880;SDS011;4979;51.014;6.678;2023-07-31T11:05:47;2.25;;;1.50;;
9880;SDS011;4979;51.014;6.678;2023-07-31T11:13:29;2.28;;;1.40;;
9880;SDS011;4979;51.014;6.678;2023-07-31T11:15:55;2.08;;;1.42;;
9880;SDS011;4979;51.014;6.678;2023-07-31T11:18:21;2.80;;;1.45;;
9880;SDS011;4979;51.014;6.678;2023-07-31T11:20:47;2.88;;;1.70;;
9880;SDS011;4979;51.014;6.678;2023-07-31T11:23:13;4.93;;;1.75;;
9880;SDS011;4979;51.014;6.678;2023-07-31T11:25:41;2.65;;;1.33;;
9880;SDS011;4979;51.014;6.678;2023-07-31T11:28:11;3.35;;;1.40;;
9880;SDS011;4979;51.014;6.678;2023-07-31T11:30:40;1.33;;;1.13;;
9880;SDS011;4979;51.014;6.678;2023-07-31T11:33:07;1.50;;;1.08;;
9880;SDS011;4979;51.014;6.678;2023-07-31T11:35:35;1.15;;;1.05;;
9880;SDS011;4979;51.014;6.678;2023-07-31T11:38:23;1.77;;;1.40;;
9880;SDS011;4979;51.014;6.678;2023-07-31T11:40:51;1.17;;;1.08;;
9880;SDS011;4979;51.014;6.678;2023-07-31T11:43:18;1.52;;;1.42;;
9880;SDS011;4979;51.014;6.678;2023-07-31T11:45:46;2.40;;;1.50;;
9880;SDS011;4979;51.014;6.678;2023-07-31T11:48:25;1.73;;;1.50;;
9880;SDS011;4979;51.014;6.678;2023-07-31T11:50:58;3.25;;;1.27;;
9880;SDS011;4979;51.014;6.678;2023-07-31T11:53:26;1.42;;;1.33;;
9880;SDS011;4979;51.014;6.678;2023-07-31T11:55:57;2.35;;;1.58;;
9880;SDS011;4979;51.014;6.678;2023-07-31T11:58:24;2.67;;;1.42;;
9880;SDS011;4979;51.014;6.678;2023-07-31T12:00:50;1.70;;;1.60;;
9880;SDS011;4979;51.014;6.678;2023-07-31T12:03:16;2.25;;;1.90;;
9880;SDS011;4979;51.014;6.678;2023-07-31T12:05:43;2.22;;;1.80;;
9880;SDS011;4979;51.014;6.678;2023-07-31T12:08:10;2.03;;;1.70;;
9880;SDS011;4979;51.014;6.678;2023-07-31T12:10:40;3.47;;;1.90;;
9880;SDS011;4979;51.014;6.678;2023-07-31T12:13:19;3.67;;;2.05;;
9880;SDS011;4979;51.014;6.678;2023-07-31T12:15:53;6.43;;;2.20;;
9880;SDS011;4979;51.014;6.678;2023-07-31T12:18:21;2.60;;;1.92;;
9880;SDS011;4979;51.014;6.678;2023-07-31T12:20:54;1.90;;;1.70;;
9880;SDS011;4979;51.014;6.678;2023-07-31T12:23:27;3.20;;;2.53;;
9880;SDS011;4979;51.014;6.678;2023-07-31T12:26:14;3.28;;;2.42;;
9880;SDS011;4979;51.014;6.678;2023-07-31T12:31:15;3.70;;;2.05;;
9880;SDS011;4979;51.014;6.678;2023-07-31T12:33:46;4.72;;;1.85;;
9880;SDS011;4979;51.014;6.678;2023-07-31T12:36:15;4.50;;;2.40;;
9880;SDS011;4979;51.014;6.678;2023-07-31T12:38:43;4.00;;;2.55;;
9880;SDS011;4979;51.014;6.678;2023-07-31T12:41:09;2.55;;;2.03;;
9880;SDS011;4979;51.014;6.678;2023-07-31T12:43:36;3.50;;;2.28;;
9880;SDS011;4979;51.014;6.678;2023-07-31T12:46:02;2.90;;;2.10;;
9880;SDS011;4979;51.014;6.678;2023-07-31T12:48:28;4.35;;;2.75;;
9880;SDS011;4979;51.014;6.678;2023-07-31T12:50:54;4.15;;;2.42;;
9880;SDS011;4979;51.014;6.678;2023-07-31T12:53:20;3.45;;;2.45;;
9880;SDS011;4979;51.014;6.678;2023-07-31T12:55:46;3.45;;;2.80;;
9880;SDS011;4979;51.014;6.678;2023-07-31T12:58:12;1.95;;;1.80;;
9880;SDS011;4979;51.014;6.678;2023-07-31T13:00:37;3.90;;;2.50;;
9880;SDS011;4979;51.014;6.678;2023-07-31T13:03:03;4.80;;;2.60;;
9880;SDS011;4979;51.014;6.678;2023-07-31T13:05:29;2.45;;;2.25;;
9880;SDS011;4979;51.014;6.678;2023-07-31T13:07:54;3.42;;;2.90;;
9880;SDS011;4979;51.014;6.678;2023-07-31T13:10:20;4.65;;;2.78;;
9880;SDS011;4979;51.014;6.678;2023-07-31T13:12:47;3.00;;;2.70;;
9880;SDS011;4979;51.014;6.678;2023-07-31T13:15:12;6.78;;;2.55;;
9880;SDS011;4979;51.014;6.678;2023-07-31T13:17:39;3.53;;;2.63;;
9880;SDS011;4979;51.014;6.678;2023-07-31T13:20:04;3.28;;;2.17;;
9880;SDS011;4979;51.014;6.678;2023-07-31T13:22:30;3.50;;;2.53;;
9880;SDS011;4979;51.014;6.678;2023-07-31T13:24:56;3.50;;;2.80;;
9880;SDS011;4979;51.014;6.678;2023-07-31T13:27:22;2.78;;;2.17;;
9880;SDS011;4979;51.014;6.678;2023-07-31T13:29:48;4.70;;;2.72;;
9880;SDS011;4979;51.014;6.678;2023-07-31T13:32:15;2.55;;;2.28;;
9880;SDS011;4979;51.014;6.678;2023-07-31T13:34:41;3.97;;;2.60;;
9880;SDS011;4979;51.014;6.678;2023-07-31T13:37:07;3.55;;;2.50;;
9880;SDS011;4979;51.014;6.678;2023-07-31T13:39:32;11.07;;;2.75;;
9880;SDS011;4979;51.014;6.678;2023-07-31T13:41:59;2.78;;;2.45;;
9880;SDS011;4979;51.014;6.678;2023-07-31T13:44:24;5.13;;;2.63;;
9880;SDS011;4979;51.014;6.678;2023-07-31T13:46:51;5.43;;;2.55;;
9880;SDS011;4979;51.014;6.678;2023-07-31T13:49:16;4.38;;;2.63;;
9880;SDS011;4979;51.014;6.678;2023-07-31T13:51:42;2.42;;;2.22;;
9880;SDS011;4979;51.014;6.678;2023-07-31T13:54:07;4.97;;;2.38;;
9880;SDS011;4979;51.014;6.678;2023-07-31T13:56:33;2.40;;;2.20;;
9880;SDS011;4979;51.014;6.678;2023-07-31T13:58:59;3.72;;;2.17;;
9880;SDS011;4979;51.014;6.678;2023-07-31T14:01:26;3.15;;;2.20;;
9880;SDS011;4979;51.014;6.678;2023-07-31T14:03:51;2.75;;;2.33;;
9880;SDS011;4979;51.014;6.678;2023-07-31T14:06:17;2.60;;;2.20;;
9880;SDS011;4979;51.014;6.678;2023-07-31T14:08:42;2.67;;;2.47;;
9880;SDS011;4979;51.014;6.678;2023-07-31T14:11:08;2.75;;;2.42;;
9880;SDS011;4979;51.014;6.678;2023-07-31T14:13:33;3.10;;;2.58;;
9880;SDS011;4979;51.014;6.678;2023-07-31T14:15:59;2.80;;;2.50;;
9880;SDS011;4979;51.014;6.678;2023-07-31T14:18:24;3.92;;;2.42;;
9880;SDS011;4979;51.014;6.678;2023-07-31T14:20:50;2.75;;;2.42;;
9880;SDS011;4979;51.014;6.678;2023-07-31T14:23:16;3.13;;;2.83;;
9880;SDS011;4979;51.014;6.678;2023-07-31T14:25:41;3.70;;;2.85;;
9880;SDS011;4979;51.014;6.678;2023-07-31T14:28:07;6.00;;;4.03;;
9880;SDS011;4979;51.014;6.678;2023-07-31T14:30:33;5.25;;;3.38;;
9880;SDS011;4979;51.014;6.678;2023-07-31T14:32:58;4.75;;;3.70;;
9880;SDS011;4979;51.014;6.678;2023-07-31T14:35:25;4.78;;;3.03;;
9880;SDS011;4979;51.014;6.678;2023-07-31T14:37:51;6.25;;;3.72;;
9880;SDS011;4979;51.014;6.678;2023-07-31T14:40:16;5.15;;;3.67;;
9880;SDS011;4979;51.014;6.678;2023-07-31T14:42:42;5.20;;;3.67;;
9880;SDS011;4979;51.014;6.678;2023-07-31T14:45:09;4.93;;;3.83;;
9880;SDS011;4979;51.014;6.678;2023-07-31T14:47:35;6.40;;;3.50;;
9880;SDS011;4979;51.014;6.678;2023-07-31T14:50:01;4.93;;;3.20;;
9880;SDS011;4979;51.014;6.678;2023-07-31T14:52:28;5.45;;;3.20;;
9880;SDS011;4979;51.014;6.678;2023-07-31T14:54:53;5.05;;;3.97;;
9880;SDS011;4979;51.014;6.678;2023-07-31T14:57:19;7.95;;;3.40;;
9880;SDS011;4979;51.014;6.678;2023-07-31T14:59:45;3.70;;;3.33;;
9880;SDS011;4979;51.014;6.678;2023-07-31T15:02:11;4.13;;;2.92;;
9880;SDS011;4979;51.014;6.678;2023-07-31T15:04:37;5.43;;;3.00;;
9880;SDS011;4979;51.014;6.678;2023-07-31T15:07:03;4.13;;;3.20;;
9880;SDS011;4979;51.014;6.678;2023-07-31T15:09:29;3.08;;;2.72;;
9880;SDS011;4979;51.014;6.678;2023-07-31T15:11:55;6.15;;;3.17;;
9880;SDS011;4979;51.014;6.678;2023-07-31T15:14:21;4.13;;;3.17;;
9880;SDS011;4979;51.014;6.678;2023-07-31T15:16:47;4.57;;;2.80;;
9880;SDS011;4979;51.014;6.678;2023-07-31T15:19:12;4.72;;;3.50;;
9880;SDS011;4979;51.014;6.678;2023-07-31T15:21:39;6.43;;;3.65;;
9880;SDS011;4979;51.014;6.678;2023-07-31T15:24:04;4.35;;;3.15;;
9880;SDS011;4979;51.014;6.678;2023-07-31T15:26:30;4.38;;;2.97;;
9880;SDS011;4979;51.014;6.678;2023-07-31T15:28:57;6.85;;;3.40;;